createdAt,value
2022-10-23T00:00:54.353Z,11.38
2022-10-23T00:02:05.941Z,11.55
2022-10-23T00:03:19.899Z,12.98
2022-10-23T00:04:31.348Z,13.85
2022-10-23T00:05:42.802Z,14.35
2022-10-23T00:06:54.393Z,15.57
2022-10-23T00:08:05.874Z,17.70
2022-10-23T00:09:19.431Z,15.32
2022-10-23T00:10:30.847Z,18.50
2022-10-23T00:11:42.352Z,15.98
2022-10-23T00:12:54.128Z,14.30
2022-10-23T00:14:07.340Z,16.05
2022-10-23T00:15:19.757Z,19.60
2022-10-23T00:16:31.314Z,17.27
2022-10-23T00:17:42.890Z,17.05
2022-10-23T00:18:54.501Z,18.73
2022-10-23T00:20:07.528Z,14.90
2022-10-23T00:21:19.146Z,14.50
2022-10-23T00:22:30.555Z,13.55
2022-10-23T00:23:42.089Z,16.88
2022-10-23T00:24:53.566Z,22.08
2022-10-23T00:26:05.184Z,19.80
2022-10-23T00:27:16.620Z,16.30
2022-10-23T00:28:28.034Z,16.80
2022-10-23T00:29:39.464Z,16.90
2022-10-23T00:30:50.872Z,19.02
2022-10-23T00:32:02.327Z,19.38
2022-10-23T00:33:13.800Z,16.95
2022-10-23T00:34:25.245Z,21.35
2022-10-23T00:35:40.422Z,13.63
2022-10-23T00:36:51.856Z,20.50
2022-10-23T00:38:03.315Z,15.77
2022-10-23T00:39:14.735Z,18.20
2022-10-23T00:40:26.146Z,17.17
2022-10-23T00:41:37.587Z,19.20
2022-10-23T00:42:49.068Z,19.25
2022-10-23T00:44:00.519Z,20.90
2022-10-23T00:45:23.088Z,20.05
2022-10-23T00:46:35.532Z,20.02
2022-10-23T00:47:47.546Z,20.65
2022-10-23T00:48:59.492Z,20.80
2022-10-23T00:50:11.098Z,19.20
2022-10-23T00:51:22.686Z,23.48
2022-10-23T00:52:36.887Z,17.85
2022-10-23T00:54:01.076Z,18.20
2022-10-23T00:55:22.636Z,15.35
2022-10-23T00:56:36.184Z,15.75
2022-10-23T00:57:48.964Z,19.42
2022-10-23T00:59:00.428Z,21.05
2022-10-23T01:00:22.379Z,21.75
2022-10-23T01:01:34.282Z,25.77
2022-10-23T01:02:46.161Z,21.58
2022-10-23T01:03:58.025Z,22.75
2022-10-23T01:05:09.755Z,20.85
2022-10-23T01:06:34.404Z,20.73
2022-10-23T01:07:50.494Z,20.10
2022-10-23T01:09:01.920Z,24.13
2022-10-23T01:10:16.058Z,20.55
2022-10-23T01:11:30.781Z,18.63
2022-10-23T01:12:42.194Z,19.20
2022-10-23T01:15:24.048Z,20.67
2022-10-23T01:16:53.520Z,18.88
2022-10-23T01:18:13.015Z,20.52
2022-10-23T01:19:35.718Z,20.23
2022-10-23T01:20:51.430Z,23.67
2022-10-23T01:22:12.916Z,18.83
2022-10-23T01:23:33.334Z,18.33
2022-10-23T01:24:54.153Z,15.02
2022-10-23T01:26:41.159Z,16.27
2022-10-23T01:27:54.933Z,21.80
2022-10-23T01:29:24.939Z,14.93
2022-10-23T01:30:38.040Z,17.52
2022-10-23T01:31:51.356Z,19.27
2022-10-23T01:33:02.798Z,17.75
2022-10-23T01:34:28.063Z,19.55
2022-10-23T01:35:59.716Z,16.77
2022-10-23T01:37:13.087Z,12.65
2022-10-23T01:38:24.479Z,16.08
2022-10-23T01:39:38.200Z,16.85
2022-10-23T01:41:04.267Z,15.45
2022-10-23T01:42:18.889Z,18.20
2022-10-23T01:43:32.264Z,18.83
2022-10-23T01:44:57.909Z,14.10
2022-10-23T01:46:10.654Z,13.98
2022-10-23T01:47:23.870Z,21.52
2022-10-23T01:48:36.447Z,23.10
2022-10-23T01:49:48.760Z,30.90
2022-10-23T01:51:01.801Z,25.90
2022-10-23T01:52:14.059Z,26.42
2022-10-23T01:53:27.662Z,24.92
2022-10-23T01:54:41.089Z,26.95
2022-10-23T01:55:53.372Z,25.13
2022-10-23T01:57:07.741Z,27.45
2022-10-23T01:58:21.157Z,27.95
2022-10-23T01:59:35.391Z,31.05
2022-10-23T02:00:47.391Z,27.40
2022-10-23T02:01:59.391Z,31.10
2022-10-23T02:03:11.896Z,24.95
2022-10-23T02:04:40.328Z,22.95
2022-10-23T02:05:51.819Z,27.60
2022-10-23T02:07:03.277Z,21.48
2022-10-23T02:08:14.964Z,21.58
2022-10-23T02:09:26.412Z,22.17
2022-10-23T02:10:43.104Z,23.13
2022-10-23T02:11:58.689Z,26.63
2022-10-23T02:13:19.128Z,21.42
2022-10-23T02:14:53.618Z,19.05
2022-10-23T02:16:07.927Z,18.40
2022-10-23T02:17:36.483Z,20.45
2022-10-23T02:18:50.900Z,19.42
2022-10-23T02:20:22.574Z,23.13
2022-10-23T02:21:40.197Z,19.67
2022-10-23T02:23:27.188Z,21.80
2022-10-23T02:24:42.847Z,17.98
2022-10-23T02:25:56.331Z,24.23
2022-10-23T02:27:12.851Z,24.90
2022-10-23T02:28:26.258Z,21.40
2022-10-23T02:29:40.459Z,23.73
2022-10-23T02:30:52.511Z,24.77
2022-10-23T02:32:04.023Z,22.70
2022-10-23T02:33:16.989Z,26.42
2022-10-23T02:34:28.543Z,23.98
2022-10-23T02:35:39.984Z,30.30
2022-10-23T02:36:51.505Z,34.38
2022-10-23T02:38:02.963Z,24.15
2022-10-23T02:39:14.473Z,28.85
2022-10-23T02:40:30.452Z,30.63
2022-10-23T02:41:45.177Z,26.65
2022-10-23T02:43:07.829Z,24.75
2022-10-23T02:44:51.756Z,27.58
2022-10-23T02:46:18.441Z,24.13
2022-10-23T02:47:48.511Z,20.55
2022-10-23T02:48:59.918Z,23.90
2022-10-23T02:50:17.627Z,26.02
2022-10-23T02:51:31.934Z,25.95
2022-10-23T02:52:51.249Z,23.30
2022-10-23T02:54:08.649Z,26.25
2022-10-23T02:55:23.180Z,23.25
2022-10-23T02:56:42.703Z,30.02
2022-10-23T02:57:56.944Z,23.63
2022-10-23T02:59:08.360Z,22.58
2022-10-23T03:00:23.062Z,23.95
2022-10-23T03:01:50.736Z,22.05
2022-10-23T03:03:05.220Z,25.00
2022-10-23T03:04:17.719Z,23.90
2022-10-23T03:05:34.184Z,21.17
2022-10-23T03:06:46.084Z,20.73
2022-10-23T03:07:57.715Z,21.13
2022-10-23T03:09:10.220Z,21.50
2022-10-23T03:10:21.670Z,17.45
2022-10-23T03:11:33.160Z,18.75
2022-10-23T03:12:44.887Z,19.05
2022-10-23T03:13:56.419Z,24.60
2022-10-23T03:15:10.528Z,21.65
2022-10-23T03:16:21.972Z,16.92
2022-10-23T03:17:33.426Z,22.95
2022-10-23T03:18:44.868Z,23.58
2022-10-23T03:19:56.304Z,17.55
2022-10-23T03:21:08.289Z,17.15
2022-10-23T03:22:19.727Z,21.35
2022-10-23T03:23:31.219Z,15.52
2022-10-23T03:24:42.747Z,21.65
2022-10-23T03:25:54.446Z,16.95
2022-10-23T03:27:05.860Z,19.30
2022-10-23T03:28:17.306Z,19.63
2022-10-23T03:29:28.724Z,18.08
2022-10-23T03:30:40.183Z,21.08
2022-10-23T03:31:51.602Z,20.95
2022-10-23T03:33:03.059Z,16.85
2022-10-23T03:34:15.119Z,19.98
2022-10-23T03:35:26.567Z,15.93
2022-10-23T03:36:38.099Z,15.48
2022-10-23T03:37:49.533Z,20.67
2022-10-23T03:39:01.083Z,17.25
2022-10-23T03:40:12.524Z,17.80
2022-10-23T03:41:23.967Z,13.63
2022-10-23T03:42:35.400Z,20.23
2022-10-23T03:43:46.898Z,18.95
2022-10-23T03:44:58.312Z,18.05
2022-10-23T03:46:12.819Z,18.27
2022-10-23T03:47:24.384Z,14.25
2022-10-23T03:48:38.270Z,15.85
2022-10-23T03:49:49.704Z,17.40
2022-10-23T03:51:01.118Z,21.73
2022-10-23T03:52:12.679Z,25.85
2022-10-23T03:53:24.140Z,27.35
2022-10-23T03:54:35.620Z,31.23
2022-10-23T03:55:47.059Z,26.55
2022-10-23T03:56:58.524Z,24.13
2022-10-23T03:58:09.976Z,22.23
2022-10-23T03:59:21.607Z,25.88
2022-10-23T04:00:33.286Z,24.90
2022-10-23T04:01:44.974Z,25.83
2022-10-23T04:02:56.439Z,20.77
2022-10-23T04:04:07.910Z,22.55
2022-10-23T04:05:19.332Z,18.50
2022-10-23T04:06:30.779Z,20.55
2022-10-23T04:07:42.544Z,24.42
2022-10-23T04:08:53.966Z,28.10
2022-10-23T04:10:06.112Z,25.02
2022-10-23T04:11:17.573Z,22.33
2022-10-23T04:12:29.004Z,21.17
2022-10-23T04:13:40.443Z,18.90
2022-10-23T04:14:51.879Z,21.63
2022-10-23T04:16:03.378Z,25.15
2022-10-23T04:17:14.931Z,21.10
2022-10-23T04:18:27.661Z,23.27
2022-10-23T04:19:39.135Z,21.23
2022-10-23T04:20:51.764Z,14.13
2022-10-23T04:22:03.212Z,22.20
2022-10-23T04:23:14.927Z,21.98
2022-10-23T04:24:26.774Z,19.35
2022-10-23T04:25:38.256Z,15.18
2022-10-23T04:26:49.738Z,16.90
2022-10-23T04:28:01.342Z,18.10
2022-10-23T04:29:12.799Z,24.38
2022-10-23T04:30:24.232Z,23.30
2022-10-23T04:31:35.722Z,16.17
2022-10-23T04:32:49.979Z,18.05
2022-10-23T04:34:01.481Z,19.00
2022-10-23T04:35:13.034Z,24.60
2022-10-23T04:36:24.448Z,20.98
2022-10-23T04:37:35.918Z,26.35
2022-10-23T04:38:47.960Z,26.45
2022-10-23T04:39:59.390Z,21.13
2022-10-23T04:41:10.824Z,31.92
2022-10-23T04:42:22.299Z,31.45
2022-10-23T04:43:33.788Z,26.55
2022-10-23T04:44:45.221Z,26.98
2022-10-23T04:45:57.791Z,20.40
2022-10-23T04:47:09.275Z,19.35
2022-10-23T04:48:23.374Z,26.27
2022-10-23T04:49:37.060Z,28.10
2022-10-23T04:50:56.494Z,20.52
2022-10-23T04:52:07.908Z,80.93
2022-10-23T04:53:19.317Z,71.10
2022-10-23T04:54:35.310Z,56.45
2022-10-23T04:55:53.182Z,52.70
2022-10-23T04:57:05.057Z,45.22
2022-10-23T04:58:16.549Z,45.60
2022-10-23T04:59:27.964Z,37.47
2022-10-23T05:00:39.470Z,33.88
2022-10-23T05:01:50.956Z,40.88
2022-10-23T05:03:02.437Z,31.00
2022-10-23T05:04:14.059Z,33.75
2022-10-23T05:05:25.507Z,34.50
2022-10-23T05:06:37.013Z,28.88
2022-10-23T05:07:48.493Z,31.42
2022-10-23T05:08:59.949Z,25.75
2022-10-23T05:10:11.394Z,34.33
2022-10-23T05:11:22.882Z,33.85
2022-10-23T05:12:34.304Z,66.60
2022-10-23T05:13:45.735Z,54.30
2022-10-23T05:14:57.217Z,42.53
2022-10-23T05:16:08.715Z,34.92
2022-10-23T05:17:27.110Z,35.15
2022-10-23T05:18:42.805Z,30.98
2022-10-23T05:19:55.315Z,31.90
2022-10-23T05:21:09.122Z,29.42
2022-10-23T05:22:21.884Z,33.75
2022-10-23T05:23:33.824Z,35.55
2022-10-23T05:24:48.237Z,53.53
2022-10-23T05:26:03.324Z,55.25
2022-10-23T05:27:14.759Z,42.60
2022-10-23T05:28:26.191Z,43.40
2022-10-23T05:29:37.642Z,38.95
2022-10-23T05:30:49.481Z,55.22
2022-10-23T05:32:02.862Z,77.20
2022-10-23T05:33:14.499Z,74.13
2022-10-23T05:34:27.328Z,60.17
2022-10-23T05:35:39.171Z,57.22
2022-10-23T05:36:50.683Z,47.08
2022-10-23T05:38:02.292Z,59.80
2022-10-23T05:39:13.820Z,60.97
2022-10-23T05:40:25.594Z,54.30
2022-10-23T05:41:37.120Z,36.83
2022-10-23T05:42:48.890Z,42.10
2022-10-23T05:44:00.527Z,59.30
2022-10-23T05:45:12.294Z,56.97
2022-10-23T05:46:23.852Z,57.50
2022-10-23T05:47:35.437Z,47.97
2022-10-23T05:48:49.881Z,49.40
2022-10-23T05:50:01.336Z,32.78
2022-10-23T05:51:12.858Z,32.20
2022-10-23T05:52:26.265Z,32.15
2022-10-23T05:53:40.311Z,29.30
2022-10-23T05:54:53.923Z,30.95
2022-10-23T05:56:06.344Z,35.03
2022-10-23T05:58:34.818Z,28.08
2022-10-23T05:59:46.264Z,33.45
2022-10-23T06:00:57.745Z,28.83
2022-10-23T06:02:11.391Z,28.23
2022-10-23T06:03:22.910Z,26.35
2022-10-23T06:04:35.115Z,30.17
2022-10-23T06:05:52.898Z,29.42
2022-10-23T06:07:04.561Z,27.67
2022-10-23T06:08:16.105Z,26.35
2022-10-23T06:09:27.619Z,30.75
2022-10-23T06:10:39.029Z,23.35
2022-10-23T06:11:50.531Z,24.92
2022-10-23T06:13:02.086Z,35.80
2022-10-23T06:14:13.583Z,34.22
2022-10-23T06:15:25.048Z,27.73
2022-10-23T06:16:36.470Z,28.92
2022-10-23T06:17:48.094Z,23.98
2022-10-23T06:19:00.417Z,28.92
2022-10-23T06:20:11.982Z,26.25
2022-10-23T06:21:23.511Z,31.77
2022-10-23T06:22:34.990Z,31.42
2022-10-23T06:23:46.654Z,32.63
2022-10-23T06:24:58.122Z,32.47
2022-10-23T06:26:10.813Z,28.83
2022-10-23T06:27:22.257Z,28.80
2022-10-23T06:28:33.749Z,29.58
2022-10-23T06:29:45.242Z,30.92
2022-10-23T06:30:56.690Z,29.40
2022-10-23T06:32:08.203Z,30.17
2022-10-23T06:33:19.650Z,33.10
2022-10-23T06:34:31.174Z,31.77
2022-10-23T06:35:42.957Z,28.83
2022-10-23T06:36:54.398Z,22.38
2022-10-23T06:38:05.841Z,24.05
2022-10-23T06:39:17.278Z,24.42
2022-10-23T06:40:28.866Z,23.90
2022-10-23T06:41:42.073Z,46.63
2022-10-23T06:42:55.422Z,27.00
2022-10-23T06:44:06.841Z,22.35
2022-10-23T06:45:21.160Z,17.40
2022-10-23T06:46:34.751Z,18.60
2022-10-23T06:47:46.452Z,19.33
2022-10-23T06:48:58.120Z,30.98
2022-10-23T06:50:14.645Z,28.90
2022-10-23T06:51:29.828Z,23.70
2022-10-23T06:52:46.938Z,28.70
2022-10-23T06:53:59.207Z,36.97
2022-10-23T06:55:10.664Z,23.58
2022-10-23T06:56:22.957Z,19.38
2022-10-23T06:57:34.426Z,20.98
2022-10-23T06:58:45.861Z,38.90
2022-10-23T06:59:57.296Z,35.92
2022-10-23T07:01:11.372Z,48.58
2022-10-23T07:02:23.176Z,42.67
2022-10-23T07:03:34.924Z,45.13
2022-10-23T07:04:49.352Z,38.38
2022-10-23T07:06:05.320Z,29.77
2022-10-23T07:07:16.817Z,25.30
2022-10-23T07:08:28.728Z,22.92
2022-10-23T07:09:40.248Z,23.02
2022-10-23T07:10:51.736Z,27.92
2022-10-23T07:12:03.248Z,42.60
2022-10-23T07:13:14.797Z,41.42
2022-10-23T07:14:26.255Z,34.75
2022-10-23T07:15:38.359Z,49.58
2022-10-23T07:16:49.807Z,34.13
2022-10-23T07:18:01.300Z,23.42
2022-10-23T07:19:15.272Z,34.47
2022-10-23T07:20:27.140Z,24.80
2022-10-23T07:21:40.987Z,23.17
2022-10-23T07:22:53.562Z,23.02
2022-10-23T07:24:05.082Z,26.52
2022-10-23T07:25:16.599Z,25.45
2022-10-23T07:26:28.374Z,24.92
2022-10-23T07:27:39.990Z,28.27
2022-10-23T07:28:55.084Z,28.92
2022-10-23T07:30:06.846Z,26.85
2022-10-23T07:31:18.390Z,27.00
2022-10-23T07:32:29.847Z,25.23
2022-10-23T07:33:43.399Z,24.65
2022-10-23T07:34:57.188Z,24.58
2022-10-23T07:36:09.541Z,32.22
2022-10-23T07:37:23.207Z,22.67
2022-10-23T07:38:34.961Z,19.55
2022-10-23T07:39:46.415Z,23.08
2022-10-23T07:40:59.219Z,20.23
2022-10-23T07:42:10.765Z,20.02
2022-10-23T07:43:22.499Z,23.25
2022-10-23T07:44:36.750Z,20.98
2022-10-23T07:45:48.692Z,21.73
2022-10-23T07:47:00.571Z,21.90
2022-10-23T07:48:14.465Z,24.80
2022-10-23T07:49:26.026Z,32.17
2022-10-23T07:50:38.174Z,27.25
2022-10-23T07:51:51.464Z,23.75
2022-10-23T07:53:04.287Z,22.48
2022-10-23T07:54:15.763Z,24.92
2022-10-23T07:55:27.214Z,21.70
2022-10-23T07:56:38.814Z,26.00
2022-10-23T07:57:53.104Z,21.00
2022-10-23T07:59:04.889Z,20.25
2022-10-23T08:00:16.527Z,25.48
2022-10-23T08:01:31.741Z,23.90
2022-10-23T08:02:43.508Z,25.98
2022-10-23T08:03:55.201Z,22.50
2022-10-23T08:05:06.935Z,25.65
2022-10-23T08:06:18.428Z,28.23
2022-10-23T08:07:29.925Z,23.33
2022-10-23T08:08:41.453Z,20.83
2022-10-23T08:09:54.817Z,23.95
2022-10-23T08:11:08.634Z,19.70
2022-10-23T08:12:20.088Z,19.38
2022-10-23T08:13:31.602Z,23.10
2022-10-23T08:14:43.120Z,20.87
2022-10-23T08:15:58.597Z,28.23
2022-10-23T08:17:10.227Z,26.30
2022-10-23T08:18:21.826Z,33.93
2022-10-23T08:19:35.730Z,31.33
2022-10-23T08:20:52.367Z,32.13
2022-10-23T08:22:05.104Z,23.67
2022-10-23T08:23:18.524Z,34.47
2022-10-23T08:24:30.123Z,48.07
2022-10-23T08:25:44.299Z,57.60
2022-10-23T08:26:55.883Z,100.13
2022-10-23T08:28:10.383Z,76.70
2022-10-23T08:29:22.018Z,62.17
2022-10-23T08:30:33.469Z,36.97
2022-10-23T08:31:44.926Z,26.77
2022-10-23T08:32:56.370Z,24.73
2022-10-23T08:34:07.840Z,19.23
2022-10-23T08:35:19.310Z,21.13
2022-10-23T08:36:30.882Z,17.87
2022-10-23T08:37:42.547Z,21.80
2022-10-23T08:38:55.328Z,19.97
2022-10-23T08:40:07.116Z,19.10
2022-10-23T08:41:23.079Z,18.23
2022-10-23T08:42:37.307Z,19.37
2022-10-23T08:43:51.503Z,21.23
2022-10-23T08:45:07.965Z,19.73
2022-10-23T08:46:20.390Z,15.83
2022-10-23T08:47:54.392Z,17.57
2022-10-23T08:49:05.825Z,39.40
2022-10-23T08:50:43.536Z,66.03
2022-10-23T08:51:58.367Z,18.70
2022-10-23T08:53:22.271Z,26.83
2022-10-23T08:54:33.708Z,25.23
2022-10-23T08:56:06.541Z,17.20
2022-10-23T08:57:18.616Z,17.20
2022-10-23T08:58:46.137Z,24.43
2022-10-23T09:00:03.801Z,18.80
2022-10-23T09:01:28.517Z,28.00
2022-10-23T09:02:45.095Z,51.80
2022-10-23T09:03:57.004Z,37.13
2022-10-23T09:05:30.871Z,30.83
2022-10-23T09:07:00.793Z,21.53
2022-10-23T09:08:12.817Z,23.10
2022-10-23T09:09:42.905Z,29.37
2022-10-23T09:11:02.075Z,19.60
2022-10-23T09:12:20.856Z,21.63
2022-10-23T09:13:44.149Z,21.33
2022-10-23T09:14:55.562Z,19.73
2022-10-23T09:16:22.119Z,21.50
2022-10-23T09:17:41.415Z,22.07
2022-10-23T09:18:56.536Z,21.43
2022-10-23T09:20:26.377Z,19.90
2022-10-23T09:21:37.963Z,21.27
2022-10-23T09:22:53.087Z,20.07
2022-10-23T09:24:04.648Z,20.20
2022-10-23T09:25:18.941Z,21.43
2022-10-23T09:26:30.404Z,36.83
2022-10-23T09:27:54.970Z,24.70
2022-10-23T09:29:17.845Z,26.57
2022-10-23T09:30:32.063Z,21.40
2022-10-23T09:31:54.246Z,19.00
2022-10-23T09:33:14.949Z,20.03
2022-10-23T09:34:30.276Z,19.87
2022-10-23T09:35:53.110Z,20.63
2022-10-23T09:37:17.255Z,22.40
2022-10-23T09:38:28.716Z,17.97
2022-10-23T09:39:47.867Z,18.87
2022-10-23T09:41:02.071Z,29.13
2022-10-23T09:42:21.026Z,19.63
2022-10-23T09:43:32.461Z,17.83
2022-10-23T09:44:51.274Z,18.27
2022-10-23T09:46:05.093Z,21.20
2022-10-23T09:47:25.560Z,18.93
2022-10-23T09:48:36.999Z,16.63
2022-10-23T09:49:49.894Z,13.17
2022-10-23T09:51:02.549Z,13.43
2022-10-23T09:52:17.736Z,17.53
2022-10-23T09:53:37.593Z,12.43
2022-10-23T09:54:53.115Z,16.27
2022-10-23T09:56:24.523Z,9.30
2022-10-23T09:57:43.682Z,10.30
2022-10-23T09:59:14.109Z,13.90
2022-10-23T10:00:26.951Z,10.77
2022-10-23T10:02:00.149Z,11.57
2022-10-23T10:03:20.139Z,13.00
2022-10-23T10:04:35.875Z,13.23
2022-10-23T10:05:54.642Z,15.03
2022-10-23T10:07:26.463Z,20.00
2022-10-23T10:08:44.266Z,12.67
2022-10-23T10:09:56.619Z,14.27
2022-10-23T10:11:14.064Z,10.43
2022-10-23T10:12:44.027Z,16.13
2022-10-23T10:13:55.919Z,11.17
2022-10-23T10:15:25.806Z,10.00
2022-10-23T10:17:04.562Z,11.10
2022-10-23T10:18:21.891Z,12.87
2022-10-23T10:19:52.016Z,8.90
2022-10-23T10:21:03.436Z,10.07
2022-10-23T10:22:51.741Z,7.73
2022-10-23T10:24:10.914Z,5.37
2022-10-23T10:25:40.024Z,3.03
2022-10-23T10:27:20.742Z,7.43
2022-10-23T10:28:44.549Z,6.33
2022-10-23T10:30:07.203Z,3.37
2022-10-23T10:31:37.088Z,8.93
2022-10-23T10:33:04.739Z,3.50
2022-10-23T10:34:22.026Z,4.80
2022-10-23T10:35:52.404Z,2.90
2022-10-23T10:37:17.710Z,3.50
2022-10-23T10:39:02.233Z,3.60
2022-10-23T10:40:16.693Z,4.77
2022-10-23T10:41:28.125Z,3.10
2022-10-23T10:42:59.086Z,4.37
2022-10-23T10:44:30.820Z,3.33
2022-10-23T10:45:52.615Z,8.40
2022-10-23T10:47:14.916Z,6.10
2022-10-23T10:48:36.082Z,5.60
2022-10-23T10:50:23.026Z,2.40
2022-10-23T10:51:41.676Z,3.57
2022-10-23T10:53:19.450Z,4.40
2022-10-23T10:54:42.395Z,3.47
2022-10-23T10:55:55.261Z,2.20
2022-10-23T10:57:14.865Z,1.67
2022-10-23T10:58:28.623Z,0.77
2022-10-23T10:59:42.683Z,4.00
2022-10-23T11:01:01.852Z,6.20
2022-10-23T11:02:35.556Z,4.20
2022-10-23T11:03:54.452Z,5.80
2022-10-23T11:05:15.323Z,3.40
2022-10-23T11:06:30.143Z,5.17
2022-10-23T11:07:46.375Z,0.97
2022-10-23T11:09:19.870Z,5.23
2022-10-23T11:10:32.745Z,1.93
2022-10-23T11:11:44.783Z,1.70
2022-10-23T11:12:59.973Z,3.13
2022-10-23T11:14:18.800Z,1.50
2022-10-23T11:15:39.786Z,3.17
2022-10-23T11:16:54.503Z,1.73
2022-10-23T11:18:11.820Z,2.63
2022-10-23T11:19:32.479Z,3.93
2022-10-23T11:20:50.958Z,1.80
2022-10-23T11:22:16.728Z,2.53
2022-10-23T11:23:38.184Z,2.43
2022-10-23T11:25:00.219Z,1.73
2022-10-23T11:26:23.247Z,1.40
2022-10-23T11:27:52.844Z,4.63
2022-10-23T11:29:22.779Z,3.43
2022-10-23T11:30:46.534Z,1.43
2022-10-23T11:32:00.994Z,1.67
2022-10-23T11:33:43.918Z,1.67
2022-10-23T11:35:14.958Z,1.07
2022-10-23T11:36:35.709Z,5.43
2022-10-23T11:38:05.754Z,1.40
2022-10-23T11:39:21.729Z,3.53
2022-10-23T11:40:34.683Z,0.97
2022-10-23T11:41:58.089Z,2.43
2022-10-23T11:43:11.842Z,1.57
2022-10-23T11:44:26.084Z,0.90
2022-10-23T11:45:38.697Z,4.27
2022-10-23T11:47:01.709Z,2.37
2022-10-23T11:48:43.724Z,1.33
2022-10-23T11:50:11.897Z,2.47
2022-10-23T11:51:27.657Z,4.73
2022-10-23T11:52:50.336Z,1.47
2022-10-23T11:54:16.959Z,1.50
2022-10-23T11:55:35.498Z,4.10
2022-10-23T11:57:11.448Z,1.60
2022-10-23T11:58:24.172Z,1.70
2022-10-23T11:59:38.094Z,3.50
2022-10-23T12:00:53.521Z,2.67
2022-10-23T12:02:20.391Z,1.30
2022-10-23T12:03:43.419Z,0.53
2022-10-23T12:04:55.811Z,1.87
2022-10-23T12:06:08.140Z,1.97
2022-10-23T12:07:31.182Z,3.27
2022-10-23T12:08:50.972Z,3.27
2022-10-23T12:10:04.400Z,4.70
2022-10-23T12:11:27.575Z,1.00
2022-10-23T12:12:41.051Z,0.80
2022-10-23T12:13:55.124Z,1.67
2022-10-23T12:15:16.499Z,2.40
2022-10-23T12:16:34.697Z,3.70
2022-10-23T12:17:47.159Z,2.70
2022-10-23T12:19:11.160Z,1.40
2022-10-23T12:20:41.044Z,1.30
2022-10-23T12:21:53.544Z,1.27
2022-10-23T12:23:23.634Z,2.33
2022-10-23T12:24:39.623Z,4.20
2022-10-23T12:26:09.372Z,3.03
2022-10-23T12:27:20.767Z,4.17
2022-10-23T12:28:50.928Z,2.00
2022-10-23T12:30:21.301Z,1.80
2022-10-23T12:31:51.016Z,2.57
2022-10-23T12:33:17.591Z,2.43
2022-10-23T12:34:29.005Z,2.57
2022-10-23T12:35:49.670Z,2.80
2022-10-23T12:37:03.846Z,1.00
2022-10-23T12:38:18.389Z,3.37
2022-10-23T12:39:30.972Z,1.20
2022-10-23T12:40:52.255Z,1.30
2022-10-23T12:42:03.843Z,4.00
2022-10-23T12:43:34.680Z,1.20
2022-10-23T12:44:46.121Z,0.83
2022-10-23T12:46:04.270Z,1.43
2022-10-23T12:47:18.825Z,2.13
2022-10-23T12:48:30.321Z,1.37
2022-10-23T12:49:52.376Z,0.60
2022-10-23T12:51:03.844Z,2.57
2022-10-23T12:52:16.537Z,0.70
2022-10-23T12:53:29.407Z,1.20
2022-10-23T12:54:41.541Z,2.77
2022-10-23T12:57:21.246Z,0.93
2022-10-23T12:58:41.564Z,2.63
2022-10-23T13:00:02.386Z,2.50
2022-10-23T13:01:24.237Z,2.20
2022-10-23T13:02:35.833Z,2.07
2022-10-23T13:03:49.231Z,0.80
2022-10-23T13:05:04.669Z,1.03
2022-10-23T13:06:18.573Z,1.43
2022-10-23T13:07:42.430Z,0.63
2022-10-23T13:08:57.153Z,3.70
2022-10-23T13:10:13.566Z,1.00
2022-10-23T13:11:26.437Z,2.23
2022-10-23T13:12:40.400Z,1.03
2022-10-23T13:13:52.063Z,1.90
2022-10-23T13:15:06.236Z,1.37
2022-10-23T13:16:18.983Z,2.87
2022-10-23T13:17:38.712Z,3.13
2022-10-23T13:18:50.521Z,1.43
2022-10-23T13:20:09.020Z,1.90
2022-10-23T13:21:21.930Z,2.30
2022-10-23T13:22:33.383Z,1.23
2022-10-23T13:23:45.265Z,2.57
2022-10-23T13:24:58.805Z,0.83
2022-10-23T13:26:30.516Z,1.63
2022-10-23T13:27:44.553Z,2.27
2022-10-23T13:28:57.223Z,2.50
2022-10-23T13:30:27.334Z,4.90
2022-10-23T13:31:41.808Z,4.07
2022-10-23T13:32:55.792Z,7.83
2022-10-23T13:34:15.204Z,3.90
2022-10-23T13:35:26.952Z,2.83
2022-10-23T13:36:53.145Z,1.77
2022-10-23T13:38:08.751Z,2.73
2022-10-23T13:39:26.146Z,1.13
2022-10-23T13:40:37.623Z,3.63
2022-10-23T13:41:52.644Z,3.13
2022-10-23T13:43:13.404Z,5.33
2022-10-23T13:44:25.070Z,3.33
2022-10-23T13:45:40.667Z,7.43
2022-10-23T13:46:52.342Z,2.40
2022-10-23T13:48:08.179Z,1.30
2022-10-23T13:49:20.037Z,1.37
2022-10-23T13:50:32.112Z,1.07
2022-10-23T13:51:49.935Z,1.03
2022-10-23T13:53:01.459Z,5.00
2022-10-23T13:54:18.034Z,4.20
2022-10-23T13:55:29.626Z,4.13
2022-10-23T13:56:41.181Z,5.20
2022-10-23T13:57:52.864Z,5.00
2022-10-23T13:59:04.285Z,4.40
2022-10-23T14:00:16.401Z,2.97
2022-10-23T14:01:29.214Z,5.27
2022-10-23T14:02:41.237Z,6.47
2022-10-23T14:03:53.244Z,6.47
2022-10-23T14:05:04.825Z,1.63
2022-10-23T14:06:16.295Z,2.37
2022-10-23T14:07:27.882Z,1.50
2022-10-23T14:08:39.301Z,1.13
2022-10-23T14:09:50.852Z,1.50
2022-10-23T14:11:02.330Z,3.77
2022-10-23T14:12:13.997Z,2.67
2022-10-23T14:13:25.469Z,1.63
2022-10-23T14:14:36.927Z,1.70
2022-10-23T14:15:53.584Z,1.03
2022-10-23T14:17:05.086Z,0.60
2022-10-23T14:18:16.500Z,1.37
2022-10-23T14:19:30.390Z,1.23
2022-10-23T14:20:41.850Z,0.83
2022-10-23T14:21:53.299Z,1.67
2022-10-23T14:23:04.747Z,1.07
2022-10-23T14:24:16.179Z,1.07
2022-10-23T14:25:27.607Z,1.30
2022-10-23T14:26:39.077Z,1.30
2022-10-23T14:27:50.591Z,2.17
2022-10-23T14:29:06.515Z,3.77
2022-10-23T14:30:22.937Z,5.93
2022-10-23T14:31:35.810Z,4.33
2022-10-23T14:32:48.421Z,3.13
2022-10-23T14:34:02.938Z,2.57
2022-10-23T14:35:14.437Z,2.17
2022-10-23T14:36:30.998Z,2.20
2022-10-23T14:37:50.186Z,2.30
2022-10-23T14:39:04.016Z,2.50
2022-10-23T14:40:15.493Z,6.93
2022-10-23T14:41:31.752Z,1.97
2022-10-23T14:42:43.406Z,4.77
2022-10-23T14:43:54.869Z,1.87
2022-10-23T14:45:06.635Z,5.13
2022-10-23T14:46:22.593Z,6.77
2022-10-23T14:47:36.244Z,9.23
2022-10-23T14:48:50.960Z,5.07
2022-10-23T14:50:08.164Z,3.73
2022-10-23T14:51:19.657Z,4.27
2022-10-23T14:52:33.611Z,4.37
2022-10-23T14:53:45.288Z,3.30
2022-10-23T14:54:56.764Z,2.33
2022-10-23T14:56:08.385Z,2.27
2022-10-23T14:57:22.925Z,2.47
2022-10-23T14:58:34.526Z,1.97
2022-10-23T14:59:45.975Z,2.47
2022-10-23T15:00:58.357Z,2.47
2022-10-23T15:02:10.628Z,8.13
2022-10-23T15:03:22.179Z,2.70
2022-10-23T15:04:33.649Z,3.07
2022-10-23T15:05:52.447Z,5.53
2022-10-23T15:07:03.855Z,3.23
2022-10-23T15:08:15.617Z,3.73
2022-10-23T15:09:33.282Z,6.90
2022-10-23T15:10:44.803Z,5.97
2022-10-23T15:11:56.305Z,4.67
2022-10-23T15:13:07.738Z,3.87
2022-10-23T15:14:21.940Z,9.50
2022-10-23T15:15:33.386Z,4.90
2022-10-23T15:16:44.856Z,4.50
2022-10-23T15:17:57.188Z,3.07
2022-10-23T15:19:12.190Z,10.43
2022-10-23T15:20:26.870Z,7.90
2022-10-23T15:21:38.798Z,4.23
2022-10-23T15:22:50.227Z,5.37
2022-10-23T15:24:01.807Z,4.03
2022-10-23T15:25:17.803Z,3.23
2022-10-23T15:26:29.637Z,6.57
2022-10-23T15:27:41.192Z,10.47
2022-10-23T15:28:54.336Z,5.97
2022-10-23T15:30:06.006Z,6.10
2022-10-23T15:31:24.080Z,4.87
2022-10-23T15:32:37.908Z,8.13
2022-10-23T15:33:49.380Z,17.97
2022-10-23T15:35:00.936Z,208.93
2022-10-23T15:36:12.396Z,246.43
2022-10-23T15:37:24.193Z,42.60
2022-10-23T15:38:35.751Z,15.43
2022-10-23T15:39:47.321Z,11.57
2022-10-23T15:41:03.923Z,6.30
2022-10-23T15:42:18.209Z,17.00
2022-10-23T15:43:29.829Z,41.83
2022-10-23T15:44:41.380Z,115.53
2022-10-23T15:45:52.803Z,31.97
2022-10-23T15:47:04.244Z,21.57
2022-10-23T15:48:16.137Z,15.50
2022-10-23T15:49:29.660Z,20.63
2022-10-23T15:50:41.157Z,14.87
2022-10-23T15:51:53.204Z,24.40
2022-10-23T15:53:04.892Z,20.47
2022-10-23T15:54:18.868Z,17.83
2022-10-23T15:55:30.716Z,41.50
2022-10-23T15:56:42.470Z,29.57
2022-10-23T15:57:55.114Z,21.27
2022-10-23T15:59:06.655Z,15.73
2022-10-23T16:00:20.611Z,14.00
2022-10-23T16:01:32.380Z,12.67
2022-10-23T16:02:44.341Z,13.50
2022-10-23T16:03:56.056Z,10.60
2022-10-23T16:05:10.714Z,11.97
2022-10-23T16:06:22.632Z,11.10
2022-10-23T16:07:34.400Z,13.17
2022-10-23T16:08:46.207Z,11.60
2022-10-23T16:09:58.015Z,13.77
2022-10-23T16:11:29.426Z,12.17
2022-10-23T16:12:40.957Z,17.63
2022-10-23T16:13:54.071Z,14.80
2022-10-23T16:15:07.928Z,17.47
2022-10-23T16:16:19.518Z,22.43
2022-10-23T16:17:30.976Z,21.07
2022-10-23T16:18:43.832Z,36.20
2022-10-23T16:19:55.319Z,32.70
2022-10-23T16:21:18.375Z,38.90
2022-10-23T16:22:29.889Z,32.67
2022-10-23T16:23:41.650Z,32.73